sensor_id;sensor_type;location;lat;lon;timestamp;P1;durP1;ratioP1;P2;durP2;ratioP2
41623;SDS011;27319;50.306;18.926;2023-02-11T00:00:01;94.28;;;45.55;;
41623;SDS011;27319;50.306;18.926;2023-02-11T00:04:03;101.80;;;45.63;;
41623;SDS011;27319;50.306;18.926;2023-02-11T00:07:04;99.88;;;45.85;;
41623;SDS011;27319;50.306;18.926;2023-02-11T00:10:06;88.85;;;43.47;;
41623;SDS011;27319;50.306;18.926;2023-02-11T00:13:07;84.68;;;42.95;;
41623;SDS011;27319;50.306;18.926;2023-02-11T00:17:08;86.53;;;41.50;;
41623;SDS011;27319;50.306;18.926;2023-02-11T00:20:09;87.80;;;44.78;;
41623;SDS011;27319;50.306;18.926;2023-02-11T00:24:10;85.00;;;42.38;;
41623;SDS011;27319;50.306;18.926;2023-02-11T00:27:11;83.90;;;41.22;;
41623;SDS011;27319;50.306;18.926;2023-02-11T00:30:12;89.80;;;41.05;;
41623;SDS011;27319;50.306;18.926;2023-02-11T00:33:13;84.57;;;43.53;;
41623;SDS011;27319;50.306;18.926;2023-02-11T00:36:21;87.82;;;44.88;;
41623;SDS011;27319;50.306;18.926;2023-02-11T00:39:23;88.95;;;43.35;;
41623;SDS011;27319;50.306;18.926;2023-02-11T00:42:25;88.82;;;44.30;;
41623;SDS011;27319;50.306;18.926;2023-02-11T00:45:26;84.53;;;42.30;;
41623;SDS011;27319;50.306;18.926;2023-02-11T00:48:28;81.25;;;40.92;;
41623;SDS011;27319;50.306;18.926;2023-02-11T00:51:29;84.20;;;40.20;;
41623;SDS011;27319;50.306;18.926;2023-02-11T00:54:30;80.80;;;40.75;;
41623;SDS011;27319;50.306;18.926;2023-02-11T00:58:31;83.90;;;39.95;;
41623;SDS011;27319;50.306;18.926;2023-02-11T01:02:32;82.22;;;41.17;;
41623;SDS011;27319;50.306;18.926;2023-02-11T01:06:32;81.55;;;40.22;;
41623;SDS011;27319;50.306;18.926;2023-02-11T01:09:36;80.30;;;40.50;;
41623;SDS011;27319;50.306;18.926;2023-02-11T01:12:37;85.15;;;41.40;;
41623;SDS011;27319;50.306;18.926;2023-02-11T01:16:38;77.95;;;40.70;;
41623;SDS011;27319;50.306;18.926;2023-02-11T01:20:39;82.72;;;40.50;;
41623;SDS011;27319;50.306;18.926;2023-02-11T01:23:40;86.90;;;41.38;;
41623;SDS011;27319;50.306;18.926;2023-02-11T01:26:41;84.22;;;42.20;;
41623;SDS011;27319;50.306;18.926;2023-02-11T01:29:42;79.13;;;39.10;;
41623;SDS011;27319;50.306;18.926;2023-02-11T01:32:43;78.50;;;40.63;;
41623;SDS011;27319;50.306;18.926;2023-02-11T01:36:25;75.25;;;38.42;;
41623;SDS011;27319;50.306;18.926;2023-02-11T01:39:26;71.18;;;36.42;;
41623;SDS011;27319;50.306;18.926;2023-02-11T01:42:27;73.30;;;36.67;;
41623;SDS011;27319;50.306;18.926;2023-02-11T01:49:00;71.97;;;36.92;;
41623;SDS011;27319;50.306;18.926;2023-02-11T01:52:03;70.53;;;37.00;;
41623;SDS011;27319;50.306;18.926;2023-02-11T01:55:11;75.82;;;37.70;;
41623;SDS011;27319;50.306;18.926;2023-02-11T01:58:47;75.63;;;38.45;;
41623;SDS011;27319;50.306;18.926;2023-02-11T02:01:55;76.72;;;37.72;;
41623;SDS011;27319;50.306;18.926;2023-02-11T02:09:12;74.85;;;36.92;;
41623;SDS011;27319;50.306;18.926;2023-02-11T02:12:22;65.25;;;33.10;;
41623;SDS011;27319;50.306;18.926;2023-02-11T02:15:29;62.75;;;33.45;;
41623;SDS011;27319;50.306;18.926;2023-02-11T02:35:39;62.83;;;33.63;;
41623;SDS011;27319;50.306;18.926;2023-02-11T02:39:19;58.83;;;31.52;;
41623;SDS011;27319;50.306;18.926;2023-02-11T02:43:19;59.15;;;31.05;;
41623;SDS011;27319;50.306;18.926;2023-02-11T02:46:27;57.03;;;32.30;;
41623;SDS011;27319;50.306;18.926;2023-02-11T02:49:31;59.50;;;31.85;;
41623;SDS011;27319;50.306;18.926;2023-02-11T02:56:24;57.67;;;29.38;;
41623;SDS011;27319;50.306;18.926;2023-02-11T03:09:36;62.25;;;31.20;;
41623;SDS011;27319;50.306;18.926;2023-02-11T03:12:43;58.92;;;31.33;;
41623;SDS011;27319;50.306;18.926;2023-02-11T03:15:47;59.75;;;30.67;;
41623;SDS011;27319;50.306;18.926;2023-02-11T03:18:53;70.20;;;36.40;;
41623;SDS011;27319;50.306;18.926;2023-02-11T03:21:58;63.08;;;33.55;;
41623;SDS011;27319;50.306;18.926;2023-02-11T03:25:05;60.75;;;31.98;;
41623;SDS011;27319;50.306;18.926;2023-02-11T03:35:27;57.95;;;31.10;;
41623;SDS011;27319;50.306;18.926;2023-02-11T03:39:29;60.88;;;30.95;;
41623;SDS011;27319;50.306;18.926;2023-02-11T03:43:33;56.28;;;29.35;;
41623;SDS011;27319;50.306;18.926;2023-02-11T03:46:44;59.63;;;31.52;;
41623;SDS011;27319;50.306;18.926;2023-02-11T03:49:49;65.75;;;31.58;;
41623;SDS011;27319;50.306;18.926;2023-02-11T03:53:14;58.75;;;30.13;;
41623;SDS011;27319;50.306;18.926;2023-02-11T03:57:14;57.08;;;33.22;;
41623;SDS011;27319;50.306;18.926;2023-02-11T04:00:15;57.22;;;30.35;;
41623;SDS011;27319;50.306;18.926;2023-02-11T04:03:16;59.40;;;30.65;;
41623;SDS011;27319;50.306;18.926;2023-02-11T04:06:18;64.80;;;33.60;;
41623;SDS011;27319;50.306;18.926;2023-02-11T04:09:19;63.83;;;33.28;;
41623;SDS011;27319;50.306;18.926;2023-02-11T04:12:19;54.55;;;28.65;;
41623;SDS011;27319;50.306;18.926;2023-02-11T04:15:21;61.20;;;31.27;;
41623;SDS011;27319;50.306;18.926;2023-02-11T04:18:22;66.05;;;36.30;;
41623;SDS011;27319;50.306;18.926;2023-02-11T04:21:23;56.47;;;30.42;;
41623;SDS011;27319;50.306;18.926;2023-02-11T04:24:23;65.93;;;33.33;;
41623;SDS011;27319;50.306;18.926;2023-02-11T04:27:24;57.78;;;29.35;;
41623;SDS011;27319;50.306;18.926;2023-02-11T04:30:48;58.17;;;32.95;;
41623;SDS011;27319;50.306;18.926;2023-02-11T04:33:51;84.32;;;44.95;;
41623;SDS011;27319;50.306;18.926;2023-02-11T04:36:51;62.15;;;31.77;;
41623;SDS011;27319;50.306;18.926;2023-02-11T04:39:53;65.65;;;30.90;;
41623;SDS011;27319;50.306;18.926;2023-02-11T04:42:53;48.00;;;26.77;;
41623;SDS011;27319;50.306;18.926;2023-02-11T04:45:57;66.40;;;34.70;;
41623;SDS011;27319;50.306;18.926;2023-02-11T04:48:58;65.20;;;36.65;;
41623;SDS011;27319;50.306;18.926;2023-02-11T04:51:59;63.70;;;31.50;;
41623;SDS011;27319;50.306;18.926;2023-02-11T04:55:00;63.20;;;34.70;;
41623;SDS011;27319;50.306;18.926;2023-02-11T04:58:01;77.65;;;41.50;;
41623;SDS011;27319;50.306;18.926;2023-02-11T05:02:02;75.53;;;40.70;;
41623;SDS011;27319;50.306;18.926;2023-02-11T05:05:03;86.57;;;48.47;;
41623;SDS011;27319;50.306;18.926;2023-02-11T05:08:59;96.15;;;54.60;;
41623;SDS011;27319;50.306;18.926;2023-02-11T05:12:55;69.47;;;38.15;;
41623;SDS011;27319;50.306;18.926;2023-02-11T05:15:56;56.45;;;30.90;;
41623;SDS011;27319;50.306;18.926;2023-02-11T05:18:57;72.60;;;36.65;;
41623;SDS011;27319;50.306;18.926;2023-02-11T05:21:58;83.93;;;36.97;;
41623;SDS011;27319;50.306;18.926;2023-02-11T05:24:59;49.42;;;25.10;;
41623;SDS011;27319;50.306;18.926;2023-02-11T05:28:00;46.30;;;24.30;;
41623;SDS011;27319;50.306;18.926;2023-02-11T05:31:02;72.97;;;35.35;;
41623;SDS011;27319;50.306;18.926;2023-02-11T05:35:02;67.40;;;40.10;;
41623;SDS011;27319;50.306;18.926;2023-02-11T05:38:03;64.28;;;34.33;;
41623;SDS011;27319;50.306;18.926;2023-02-11T05:41:05;63.97;;;37.25;;
41623;SDS011;27319;50.306;18.926;2023-02-11T05:44:06;61.42;;;32.17;;
41623;SDS011;27319;50.306;18.926;2023-02-11T05:47:07;69.45;;;33.97;;
41623;SDS011;27319;50.306;18.926;2023-02-11T05:51:08;58.97;;;28.05;;
41623;SDS011;27319;50.306;18.926;2023-02-11T05:54:08;59.78;;;27.10;;
41623;SDS011;27319;50.306;18.926;2023-02-11T05:58:09;46.97;;;24.85;;
41623;SDS011;27319;50.306;18.926;2023-02-11T06:01:10;37.92;;;19.83;;
41623;SDS011;27319;50.306;18.926;2023-02-11T06:04:11;51.03;;;28.50;;
41623;SDS011;27319;50.306;18.926;2023-02-11T06:07:11;54.75;;;30.20;;
41623;SDS011;27319;50.306;18.926;2023-02-11T06:10:13;53.45;;;30.58;;
41623;SDS011;27319;50.306;18.926;2023-02-11T06:13:13;51.50;;;26.35;;
41623;SDS011;27319;50.306;18.926;2023-02-11T06:17:10;65.60;;;36.63;;
41623;SDS011;27319;50.306;18.926;2023-02-11T06:20:10;58.30;;;32.25;;
41623;SDS011;27319;50.306;18.926;2023-02-11T06:23:12;53.55;;;29.08;;
41623;SDS011;27319;50.306;18.926;2023-02-11T06:26:16;60.40;;;32.45;;
41623;SDS011;27319;50.306;18.926;2023-02-11T06:29:19;56.90;;;31.05;;
41623;SDS011;27319;50.306;18.926;2023-02-11T06:32:20;48.03;;;25.55;;
41623;SDS011;27319;50.306;18.926;2023-02-11T06:35:21;50.03;;;26.30;;
41623;SDS011;27319;50.306;18.926;2023-02-11T06:38:22;53.05;;;23.67;;
41623;SDS011;27319;50.306;18.926;2023-02-11T06:41:23;56.63;;;28.63;;
41623;SDS011;27319;50.306;18.926;2023-02-11T06:45:19;50.55;;;26.60;;
41623;SDS011;27319;50.306;18.926;2023-02-11T06:48:20;58.20;;;29.95;;
41623;SDS011;27319;50.306;18.926;2023-02-11T06:51:22;53.45;;;28.15;;
41623;SDS011;27319;50.306;18.926;2023-02-11T06:54:22;54.67;;;26.55;;
41623;SDS011;27319;50.306;18.926;2023-02-11T06:58:23;64.35;;;29.88;;
41623;SDS011;27319;50.306;18.926;2023-02-11T07:02:24;49.80;;;26.42;;
41623;SDS011;27319;50.306;18.926;2023-02-11T07:05:33;53.22;;;25.75;;
41623;SDS011;27319;50.306;18.926;2023-02-11T07:08:35;60.47;;;29.90;;
41623;SDS011;27319;50.306;18.926;2023-02-11T07:11:37;54.97;;;28.45;;
41623;SDS011;27319;50.306;18.926;2023-02-11T07:14:38;77.90;;;36.90;;
41623;SDS011;27319;50.306;18.926;2023-02-11T07:17:39;71.97;;;33.92;;
41623;SDS011;27319;50.306;18.926;2023-02-11T07:20:40;71.22;;;31.30;;
41623;SDS011;27319;50.306;18.926;2023-02-11T07:23:40;105.70;;;47.95;;
41623;SDS011;27319;50.306;18.926;2023-02-11T07:26:42;63.95;;;30.75;;
41623;SDS011;27319;50.306;18.926;2023-02-11T07:29:43;65.38;;;29.73;;
41623;SDS011;27319;50.306;18.926;2023-02-11T07:32:47;63.15;;;32.28;;
41623;SDS011;27319;50.306;18.926;2023-02-11T07:35:48;63.58;;;32.15;;
41623;SDS011;27319;50.306;18.926;2023-02-11T07:39:29;57.35;;;27.25;;
41623;SDS011;27319;50.306;18.926;2023-02-11T07:42:30;54.38;;;27.40;;
41623;SDS011;27319;50.306;18.926;2023-02-11T07:46:31;62.60;;;29.80;;
41623;SDS011;27319;50.306;18.926;2023-02-11T07:50:32;58.70;;;30.17;;
41623;SDS011;27319;50.306;18.926;2023-02-11T07:53:33;54.78;;;27.90;;
41623;SDS011;27319;50.306;18.926;2023-02-11T07:57:34;68.38;;;32.05;;
41623;SDS011;27319;50.306;18.926;2023-02-11T08:00:35;65.03;;;30.10;;
41623;SDS011;27319;50.306;18.926;2023-02-11T08:03:36;63.13;;;31.30;;
41623;SDS011;27319;50.306;18.926;2023-02-11T08:06:39;52.30;;;24.88;;
41623;SDS011;27319;50.306;18.926;2023-02-11T08:09:42;74.78;;;38.03;;
41623;SDS011;27319;50.306;18.926;2023-02-11T08:12:42;60.08;;;27.77;;
41623;SDS011;27319;50.306;18.926;2023-02-11T08:15:43;67.93;;;32.72;;
41623;SDS011;27319;50.306;18.926;2023-02-11T08:18:44;62.28;;;32.25;;
41623;SDS011;27319;50.306;18.926;2023-02-11T08:22:45;74.97;;;35.42;;
41623;SDS011;27319;50.306;18.926;2023-02-11T08:25:46;73.65;;;36.20;;
41623;SDS011;27319;50.306;18.926;2023-02-11T08:29:47;61.08;;;33.08;;
41623;SDS011;27319;50.306;18.926;2023-02-11T08:33:48;64.68;;;32.38;;
41623;SDS011;27319;50.306;18.926;2023-02-11T08:37:48;72.07;;;36.30;;
41623;SDS011;27319;50.306;18.926;2023-02-11T08:41:52;60.67;;;29.60;;
41623;SDS011;27319;50.306;18.926;2023-02-11T08:45:40;60.63;;;30.75;;
41623;SDS011;27319;50.306;18.926;2023-02-11T08:49:41;66.25;;;32.30;;
41623;SDS011;27319;50.306;18.926;2023-02-11T08:53:42;56.33;;;30.27;;
41623;SDS011;27319;50.306;18.926;2023-02-11T08:57:43;64.47;;;34.28;;
41623;SDS011;27319;50.306;18.926;2023-02-11T09:01:43;57.53;;;30.42;;
41623;SDS011;27319;50.306;18.926;2023-02-11T09:05:32;57.15;;;28.95;;
41623;SDS011;27319;50.306;18.926;2023-02-11T09:09:33;52.15;;;25.48;;
41623;SDS011;27319;50.306;18.926;2023-02-11T09:13:34;53.50;;;27.60;;
41623;SDS011;27319;50.306;18.926;2023-02-11T09:17:35;70.78;;;35.20;;
41623;SDS011;27319;50.306;18.926;2023-02-11T09:21:36;66.65;;;33.47;;
41623;SDS011;27319;50.306;18.926;2023-02-11T09:25:39;80.18;;;38.50;;
41623;SDS011;27319;50.306;18.926;2023-02-11T09:29:40;67.38;;;34.35;;
41623;SDS011;27319;50.306;18.926;2023-02-11T09:33:42;97.22;;;43.90;;
41623;SDS011;27319;50.306;18.926;2023-02-11T09:37:42;113.10;;;54.88;;
41623;SDS011;27319;50.306;18.926;2023-02-11T09:45:27;66.82;;;34.85;;
41623;SDS011;27319;50.306;18.926;2023-02-11T09:49:43;72.30;;;35.03;;
41623;SDS011;27319;50.306;18.926;2023-02-11T09:53:42;79.63;;;37.97;;
41623;SDS011;27319;50.306;18.926;2023-02-11T09:57:42;59.75;;;31.13;;
41623;SDS011;27319;50.306;18.926;2023-02-11T10:08:37;112.32;;;61.03;;
41623;SDS011;27319;50.306;18.926;2023-02-11T10:12:31;80.47;;;44.35;;
41623;SDS011;27319;50.306;18.926;2023-02-11T10:23:59;69.07;;;37.75;;
41623;SDS011;27319;50.306;18.926;2023-02-11T10:27:57;71.85;;;36.92;;
41623;SDS011;27319;50.306;18.926;2023-02-11T10:31:58;60.92;;;32.50;;
41623;SDS011;27319;50.306;18.926;2023-02-11T10:36:02;59.85;;;32.00;;
41623;SDS011;27319;50.306;18.926;2023-02-11T10:40:02;52.60;;;28.88;;
41623;SDS011;27319;50.306;18.926;2023-02-11T10:44:05;51.83;;;29.23;;
41623;SDS011;27319;50.306;18.926;2023-02-11T10:47:49;67.78;;;34.97;;
41623;SDS011;27319;50.306;18.926;2023-02-11T10:51:49;61.60;;;30.90;;
41623;SDS011;27319;50.306;18.926;2023-02-11T10:55:53;72.60;;;37.28;;
41623;SDS011;27319;50.306;18.926;2023-02-11T10:59:57;66.13;;;35.65;;
41623;SDS011;27319;50.306;18.926;2023-02-11T11:03:38;68.43;;;36.95;;
41623;SDS011;27319;50.306;18.926;2023-02-11T11:07:22;70.85;;;36.97;;
41623;SDS011;27319;50.306;18.926;2023-02-11T11:11:22;60.53;;;31.60;;
41623;SDS011;27319;50.306;18.926;2023-02-11T11:15:23;96.35;;;51.78;;
41623;SDS011;27319;50.306;18.926;2023-02-11T11:19:24;74.53;;;40.58;;
41623;SDS011;27319;50.306;18.926;2023-02-11T11:23:23;75.38;;;38.00;;
41623;SDS011;27319;50.306;18.926;2023-02-11T11:27:30;65.25;;;36.92;;
41623;SDS011;27319;50.306;18.926;2023-02-11T11:31:36;54.40;;;31.27;;
41623;SDS011;27319;50.306;18.926;2023-02-11T11:35:34;58.72;;;32.83;;
41623;SDS011;27319;50.306;18.926;2023-02-11T11:39:47;57.42;;;32.15;;
41623;SDS011;27319;50.306;18.926;2023-02-11T11:43:52;54.88;;;31.25;;
41623;SDS011;27319;50.306;18.926;2023-02-11T11:48:23;63.75;;;34.42;;
41623;SDS011;27319;50.306;18.926;2023-02-11T11:52:09;82.57;;;43.25;;
41623;SDS011;27319;50.306;18.926;2023-02-11T11:55:56;62.13;;;34.95;;
41623;SDS011;27319;50.306;18.926;2023-02-11T11:59:58;57.05;;;34.00;;
41623;SDS011;27319;50.306;18.926;2023-02-11T12:07:49;65.50;;;35.90;;
41623;SDS011;27319;50.306;18.926;2023-02-11T12:26:21;62.65;;;35.47;;
41623;SDS011;27319;50.306;18.926;2023-02-11T12:32:49;63.35;;;34.13;;
41623;SDS011;27319;50.306;18.926;2023-02-11T12:36:06;68.25;;;36.03;;
41623;SDS011;27319;50.306;18.926;2023-02-11T12:39:25;73.60;;;42.65;;
41623;SDS011;27319;50.306;18.926;2023-02-11T12:57:50;63.95;;;35.22;;
41623;SDS011;27319;50.306;18.926;2023-02-11T13:01:50;61.70;;;34.60;;
41623;SDS011;27319;50.306;18.926;2023-02-11T13:05:38;65.10;;;36.13;;
41623;SDS011;27319;50.306;18.926;2023-02-11T13:08:49;68.30;;;36.80;;
41623;SDS011;27319;50.306;18.926;2023-02-11T13:11:59;62.53;;;32.92;;
41623;SDS011;27319;50.306;18.926;2023-02-11T13:16:05;62.83;;;34.92;;
41623;SDS011;27319;50.306;18.926;2023-02-11T13:19:52;62.50;;;35.05;;
41623;SDS011;27319;50.306;18.926;2023-02-11T13:23:58;65.43;;;34.83;;
41623;SDS011;27319;50.306;18.926;2023-02-11T13:28:16;62.58;;;32.03;;
41623;SDS011;27319;50.306;18.926;2023-02-11T13:32:26;70.25;;;35.60;;
41623;SDS011;27319;50.306;18.926;2023-02-11T13:36:28;59.53;;;32.65;;
41623;SDS011;27319;50.306;18.926;2023-02-11T13:40:35;72.15;;;38.15;;
41623;SDS011;27319;50.306;18.926;2023-02-11T13:44:41;76.00;;;41.63;;
41623;SDS011;27319;50.306;18.926;2023-02-11T13:48:45;80.15;;;41.90;;
41623;SDS011;27319;50.306;18.926;2023-02-11T13:52:45;82.32;;;44.08;;
41623;SDS011;27319;50.306;18.926;2023-02-11T13:57:14;71.90;;;37.67;;
41623;SDS011;27319;50.306;18.926;2023-02-11T14:04:05;73.05;;;39.67;;
41623;SDS011;27319;50.306;18.926;2023-02-11T14:08:03;72.28;;;37.55;;
41623;SDS011;27319;50.306;18.926;2023-02-11T14:14:58;81.88;;;44.83;;
41623;SDS011;27319;50.306;18.926;2023-02-11T14:18:58;74.00;;;42.75;;
41623;SDS011;27319;50.306;18.926;2023-02-11T14:22:53;71.22;;;38.70;;
41623;SDS011;27319;50.306;18.926;2023-02-11T14:27:04;78.03;;;40.13;;
41623;SDS011;27319;50.306;18.926;2023-02-11T14:31:06;73.70;;;41.22;;
41623;SDS011;27319;50.306;18.926;2023-02-11T14:40:52;111.95;;;49.65;;
41623;SDS011;27319;50.306;18.926;2023-02-11T14:44:50;92.85;;;46.97;;
41623;SDS011;27319;50.306;18.926;2023-02-11T14:48:03;94.75;;;52.00;;
41623;SDS011;27319;50.306;18.926;2023-02-11T14:51:15;100.07;;;52.22;;
41623;SDS011;27319;50.306;18.926;2023-02-11T14:55:17;96.20;;;49.42;;
41623;SDS011;27319;50.306;18.926;2023-02-11T14:59:16;91.95;;;46.70;;
41623;SDS011;27319;50.306;18.926;2023-02-11T15:06:38;93.35;;;46.35;;
41623;SDS011;27319;50.306;18.926;2023-02-11T15:10:36;78.97;;;43.58;;
41623;SDS011;27319;50.306;18.926;2023-02-11T15:14:35;91.32;;;48.38;;
41623;SDS011;27319;50.306;18.926;2023-02-11T15:18:36;73.38;;;41.40;;
41623;SDS011;27319;50.306;18.926;2023-02-11T15:22:37;110.43;;;54.45;;
41623;SDS011;27319;50.306;18.926;2023-02-11T15:26:40;91.78;;;46.90;;
41623;SDS011;27319;50.306;18.926;2023-02-11T15:30:41;84.35;;;42.75;;
41623;SDS011;27319;50.306;18.926;2023-02-11T15:34:42;111.40;;;52.50;;
41623;SDS011;27319;50.306;18.926;2023-02-11T15:38:44;101.65;;;52.20;;
41623;SDS011;27319;50.306;18.926;2023-02-11T15:42:54;101.75;;;51.78;;
41623;SDS011;27319;50.306;18.926;2023-02-11T15:46:53;105.82;;;53.63;;
41623;SDS011;27319;50.306;18.926;2023-02-11T15:50:55;98.50;;;48.83;;
41623;SDS011;27319;50.306;18.926;2023-02-11T15:54:35;97.97;;;52.60;;
41623;SDS011;27319;50.306;18.926;2023-02-11T15:58:40;114.13;;;57.28;;
41623;SDS011;27319;50.306;18.926;2023-02-11T16:02:43;96.97;;;51.40;;
41623;SDS011;27319;50.306;18.926;2023-02-11T16:06:41;96.80;;;51.40;;
41623;SDS011;27319;50.306;18.926;2023-02-11T16:13:43;99.35;;;53.53;;
41623;SDS011;27319;50.306;18.926;2023-02-11T16:17:42;117.00;;;61.28;;
41623;SDS011;27319;50.306;18.926;2023-02-11T16:21:43;100.63;;;55.30;;
41623;SDS011;27319;50.306;18.926;2023-02-11T16:25:46;90.15;;;51.85;;
41623;SDS011;27319;50.306;18.926;2023-02-11T16:29:47;98.15;;;53.78;;
41623;SDS011;27319;50.306;18.926;2023-02-11T16:33:48;95.32;;;49.83;;
41623;SDS011;27319;50.306;18.926;2023-02-11T16:37:36;104.18;;;52.97;;
41623;SDS011;27319;50.306;18.926;2023-02-11T16:41:35;125.15;;;60.60;;
41623;SDS011;27319;50.306;18.926;2023-02-11T16:44:52;102.63;;;55.50;;
41623;SDS011;27319;50.306;18.926;2023-02-11T16:48:55;112.57;;;56.50;;
41623;SDS011;27319;50.306;18.926;2023-02-11T16:53:03;152.68;;;68.38;;
41623;SDS011;27319;50.306;18.926;2023-02-11T16:57:11;163.48;;;72.63;;
41623;SDS011;27319;50.306;18.926;2023-02-11T17:00:57;135.80;;;64.82;;
41623;SDS011;27319;50.306;18.926;2023-02-11T17:04:59;141.55;;;70.10;;
41623;SDS011;27319;50.306;18.926;2023-02-11T17:08:31;130.15;;;64.22;;
41623;SDS011;27319;50.306;18.926;2023-02-11T17:12:32;118.63;;;58.22;;
41623;SDS011;27319;50.306;18.926;2023-02-11T17:16:32;111.18;;;56.17;;
41623;SDS011;27319;50.306;18.926;2023-02-11T17:20:33;115.43;;;57.75;;
41623;SDS011;27319;50.306;18.926;2023-02-11T17:24:34;125.32;;;63.60;;
41623;SDS011;27319;50.306;18.926;2023-02-11T17:28:35;106.88;;;57.90;;
41623;SDS011;27319;50.306;18.926;2023-02-11T17:32:36;142.38;;;67.47;;
41623;SDS011;27319;50.306;18.926;2023-02-11T17:36:37;160.73;;;68.75;;
41623;SDS011;27319;50.306;18.926;2023-02-11T17:40:37;167.75;;;75.18;;
41623;SDS011;27319;50.306;18.926;2023-02-11T17:44:38;161.50;;;72.82;;
41623;SDS011;27319;50.306;18.926;2023-02-11T17:48:39;150.27;;;72.20;;
41623;SDS011;27319;50.306;18.926;2023-02-11T17:52:40;127.75;;;65.50;;
41623;SDS011;27319;50.306;18.926;2023-02-11T17:56:41;122.72;;;64.55;;
41623;SDS011;27319;50.306;18.926;2023-02-11T18:00:37;117.53;;;63.10;;
41623;SDS011;27319;50.306;18.926;2023-02-11T18:04:38;126.95;;;64.80;;
41623;SDS011;27319;50.306;18.926;2023-02-11T18:07:58;107.63;;;57.78;;
41623;SDS011;27319;50.306;18.926;2023-02-11T18:11:10;115.93;;;59.35;;
41623;SDS011;27319;50.306;18.926;2023-02-11T18:15:10;103.10;;;54.10;;
41623;SDS011;27319;50.306;18.926;2023-02-11T18:19:11;115.30;;;59.03;;
41623;SDS011;27319;50.306;18.926;2023-02-11T18:23:12;113.18;;;60.20;;
41623;SDS011;27319;50.306;18.926;2023-02-11T18:27:13;121.03;;;61.33;;
41623;SDS011;27319;50.306;18.926;2023-02-11T18:31:13;123.93;;;62.65;;
41623;SDS011;27319;50.306;18.926;2023-02-11T18:34:14;135.57;;;65.25;;
41623;SDS011;27319;50.306;18.926;2023-02-11T18:38:15;146.25;;;71.30;;
41623;SDS011;27319;50.306;18.926;2023-02-11T18:41:44;141.52;;;67.28;;
41623;SDS011;27319;50.306;18.926;2023-02-11T18:44:45;142.35;;;69.15;;
41623;SDS011;27319;50.306;18.926;2023-02-11T18:47:46;147.85;;;70.90;;
41623;SDS011;27319;50.306;18.926;2023-02-11T18:50:47;131.18;;;65.03;;
41623;SDS011;27319;50.306;18.926;2023-02-11T18:53:48;127.97;;;64.20;;
41623;SDS011;27319;50.306;18.926;2023-02-11T18:57:49;142.32;;;70.38;;
41623;SDS011;27319;50.306;18.926;2023-02-11T19:01:50;128.70;;;61.80;;
41623;SDS011;27319;50.306;18.926;2023-02-11T19:05:31;129.45;;;64.68;;
41623;SDS011;27319;50.306;18.926;2023-02-11T19:09:31;129.52;;;63.92;;
41623;SDS011;27319;50.306;18.926;2023-02-11T19:13:32;139.25;;;68.45;;
41623;SDS011;27319;50.306;18.926;2023-02-11T19:17:33;141.80;;;68.10;;
41623;SDS011;27319;50.306;18.926;2023-02-11T19:21:34;142.55;;;66.85;;
41623;SDS011;27319;50.306;18.926;2023-02-11T19:25:35;110.00;;;56.53;;
41623;SDS011;27319;50.306;18.926;2023-02-11T19:29:35;124.95;;;63.08;;
41623;SDS011;27319;50.306;18.926;2023-02-11T19:32:36;148.25;;;68.95;;
41623;SDS011;27319;50.306;18.926;2023-02-11T19:35:37;126.07;;;60.67;;
41623;SDS011;27319;50.306;18.926;2023-02-11T19:38:38;120.88;;;62.33;;
41623;SDS011;27319;50.306;18.926;2023-02-11T19:41:39;119.10;;;61.50;;
41623;SDS011;27319;50.306;18.926;2023-02-11T19:44:40;108.78;;;56.03;;
41623;SDS011;27319;50.306;18.926;2023-02-11T19:47:42;117.63;;;57.50;;
41623;SDS011;27319;50.306;18.926;2023-02-11T19:50:43;102.43;;;54.58;;
41623;SDS011;27319;50.306;18.926;2023-02-11T19:53:44;102.90;;;53.63;;
41623;SDS011;27319;50.306;18.926;2023-02-11T19:57:44;126.15;;;64.90;;
41623;SDS011;27319;50.306;18.926;2023-02-11T20:00:45;96.32;;;51.15;;
41623;SDS011;27319;50.306;18.926;2023-02-11T20:04:34;75.75;;;41.30;;
41623;SDS011;27319;50.306;18.926;2023-02-11T20:07:54;75.72;;;41.50;;
41623;SDS011;27319;50.306;18.926;2023-02-11T20:10:55;74.90;;;41.17;;
41623;SDS011;27319;50.306;18.926;2023-02-11T20:14:56;73.88;;;37.67;;
41623;SDS011;27319;50.306;18.926;2023-02-11T20:18:57;64.40;;;34.92;;
41623;SDS011;27319;50.306;18.926;2023-02-11T20:22:58;55.05;;;32.90;;
41623;SDS011;27319;50.306;18.926;2023-02-11T20:26:59;61.13;;;33.25;;
41623;SDS011;27319;50.306;18.926;2023-02-11T20:30:59;66.47;;;37.17;;
41623;SDS011;27319;50.306;18.926;2023-02-11T20:35:00;67.18;;;37.22;;
41623;SDS011;27319;50.306;18.926;2023-02-11T20:39:02;70.88;;;36.10;;
41623;SDS011;27319;50.306;18.926;2023-02-11T20:43:02;68.57;;;37.03;;
41623;SDS011;27319;50.306;18.926;2023-02-11T20:47:03;70.95;;;36.60;;
41623;SDS011;27319;50.306;18.926;2023-02-11T20:51:05;67.18;;;35.60;;
41623;SDS011;27319;50.306;18.926;2023-02-11T20:55:04;67.05;;;36.92;;
41623;SDS011;27319;50.306;18.926;2023-02-11T20:58:05;66.82;;;37.25;;
41623;SDS011;27319;50.306;18.926;2023-02-11T21:01:11;60.72;;;34.75;;
41623;SDS011;27319;50.306;18.926;2023-02-11T21:05:10;68.55;;;37.88;;
41623;SDS011;27319;50.306;18.926;2023-02-11T21:08:11;64.03;;;35.50;;
41623;SDS011;27319;50.306;18.926;2023-02-11T21:11:13;59.03;;;33.40;;
41623;SDS011;27319;50.306;18.926;2023-02-11T21:14:16;63.53;;;33.75;;
41623;SDS011;27319;50.306;18.926;2023-02-11T21:17:18;62.60;;;34.28;;
41623;SDS011;27319;50.306;18.926;2023-02-11T21:21:19;67.15;;;37.33;;
41623;SDS011;27319;50.306;18.926;2023-02-11T21:25:20;61.70;;;33.90;;
41623;SDS011;27319;50.306;18.926;2023-02-11T21:28:22;61.25;;;33.40;;
41623;SDS011;27319;50.306;18.926;2023-02-11T21:31:29;61.08;;;36.72;;
41623;SDS011;27319;50.306;18.926;2023-02-11T21:34:31;67.18;;;35.92;;
41623;SDS011;27319;50.306;18.926;2023-02-11T21:37:32;73.80;;;40.95;;
41623;SDS011;27319;50.306;18.926;2023-02-11T21:40:33;70.93;;;37.40;;
41623;SDS011;27319;50.306;18.926;2023-02-11T21:43:34;74.38;;;42.78;;
41623;SDS011;27319;50.306;18.926;2023-02-11T21:46:34;129.07;;;59.78;;
41623;SDS011;27319;50.306;18.926;2023-02-11T21:50:42;98.72;;;49.45;;
41623;SDS011;27319;50.306;18.926;2023-02-11T21:53:45;88.47;;;45.77;;
41623;SDS011;27319;50.306;18.926;2023-02-11T21:56:48;76.25;;;41.47;;
41623;SDS011;27319;50.306;18.926;2023-02-11T22:00:47;72.15;;;36.50;;
41623;SDS011;27319;50.306;18.926;2023-02-11T22:04:51;76.28;;;40.65;;
41623;SDS011;27319;50.306;18.926;2023-02-11T22:07:53;84.25;;;43.88;;
41623;SDS011;27319;50.306;18.926;2023-02-11T22:11:54;103.25;;;48.63;;
41623;SDS011;27319;50.306;18.926;2023-02-11T22:15:55;83.22;;;43.63;;
41623;SDS011;27319;50.306;18.926;2023-02-11T22:19:00;74.95;;;40.00;;
41623;SDS011;27319;50.306;18.926;2023-02-11T22:22:01;88.88;;;45.35;;
41623;SDS011;27319;50.306;18.926;2023-02-11T22:26:05;79.82;;;43.78;;